Time,TemperatureF,DewpointF,PressureIn,WindDirection,WindDirectionDegrees,WindSpeedMPH,WindSpeedGustMPH,Humidity,HourlyPrecipIn,Conditions,Clouds,dailyrainin,SolarRadiationWatts/m^2,SoftwareType,DateUTC
2013-06-18 00:02:00,71.0,68.0,-100.00,SW,231,0.0,9.0,90,0.00,,,0.09,0.000000,,2013-06-18 04:02:00,
2013-06-18 00:43:00,69.0,67.0,-100.00,ESE,104,0.0,5.0,94,0.00,,,0.09,0.000000,,2013-06-18 04:43:00,
2013-06-18 00:54:00,69.0,67.0,-100.00,ESE,104,0.0,5.0,94,0.00,,,0.09,0.000000,,2013-06-18 04:54:00,
2013-06-18 01:02:00,69.0,67.0,-100.00,ESE,104,0.0,5.0,94,0.00,,,0.09,0.000000,,2013-06-18 05:02:00,
2013-06-18 01:43:00,68.0,67.0,-100.00,South,173,0.0,4.0,96,0.00,,,0.09,0.000000,,2013-06-18 05:43:00,
2013-06-18 01:53:00,68.0,67.0,-100.00,South,173,0.0,4.0,96,0.00,,,0.09,0.000000,,2013-06-18 05:53:00,
2013-06-18 02:02:00,68.0,67.0,-100.00,South,173,0.0,4.0,96,0.00,,,0.09,0.000000,,2013-06-18 06:02:00,
2013-06-18 02:33:00,68.0,67.0,-100.00,ESE,113,0.0,0.0,97,0.00,,,0.09,0.000000,,2013-06-18 06:33:00,
2013-06-18 02:43:00,68.0,67.0,-100.00,ESE,113,0.0,0.0,97,0.00,,,0.09,0.000000,,2013-06-18 06:43:00,
2013-06-18 02:53:00,68.0,67.0,-100.00,ESE,113,0.0,0.0,97,0.00,,,0.09,0.000000,,2013-06-18 06:53:00,
2013-06-18 03:02:00,68.0,67.0,-100.00,ESE,113,0.0,0.0,97,0.00,,,0.09,0.000000,,2013-06-18 07:02:00,
2013-06-18 03:43:00,68.0,67.0,-100.00,WSW,255,0.0,0.0,97,0.00,,,0.09,0.000000,,2013-06-18 07:43:00,
2013-06-18 03:53:00,68.0,67.0,-100.00,WSW,255,0.0,0.0,97,0.00,,,0.09,0.000000,,2013-06-18 07:53:00,
2013-06-18 04:02:00,68.0,67.0,-100.00,WSW,255,0.0,0.0,97,0.00,,,0.09,0.000000,,2013-06-18 08:02:00,
2013-06-18 04:33:00,67.0,66.0,-100.00,South,188,0.0,0.0,97,0.00,,,0.09,0.000000,,2013-06-18 08:33:00,
2013-06-18 04:43:00,67.0,66.0,-100.00,South,188,0.0,0.0,97,0.00,,,0.09,0.000000,,2013-06-18 08:43:00,
2013-06-18 04:52:00,67.0,66.0,-100.00,South,188,0.0,0.0,97,0.00,,,0.09,0.000000,,2013-06-18 08:52:00,
2013-06-18 05:02:00,67.0,66.0,-100.00,South,188,0.0,0.0,97,0.00,,,0.09,0.000000,,2013-06-18 09:02:00,
2013-06-18 05:34:00,68.0,67.0,-100.00,WSW,252,0.0,0.0,97,0.00,,,0.09,0.000000,,2013-06-18 09:34:00,
2013-06-18 05:43:00,68.0,67.0,-100.00,WSW,252,0.0,0.0,97,0.00,,,0.09,0.000000,,2013-06-18 09:43:00,
2013-06-18 05:53:00,68.0,67.0,-100.00,WSW,252,0.0,0.0,97,0.00,,,0.09,0.000000,,2013-06-18 09:53:00,
2013-06-18 06:02:00,68.0,67.0,-100.00,WSW,252,0.0,0.0,97,0.00,,,0.09,0.000000,,2013-06-18 10:02:00,
2013-06-18 06:33:00,69.0,68.0,-100.00,SW,219,0.0,4.0,97,0.16,,,0.25,0.000000,,2013-06-18 10:33:00,
2013-06-18 06:43:00,69.0,68.0,-100.00,SW,219,0.0,4.0,97,0.16,,,0.25,0.000000,,2013-06-18 10:43:00,
2013-06-18 06:53:00,69.0,68.0,-100.00,SW,219,0.0,4.0,97,0.16,,,0.25,0.000000,,2013-06-18 10:53:00,
2013-06-18 07:02:00,69.0,68.0,-100.00,SW,219,0.0,4.0,97,0.16,,,0.25,0.000000,,2013-06-18 11:02:00,
2013-06-18 07:32:00,69.0,68.0,-100.00,SW,220,0.0,7.0,96,0.19,,,0.44,2.000000,,2013-06-18 11:32:00,
2013-06-18 07:43:00,69.0,68.0,-100.00,SW,220,0.0,7.0,96,0.19,,,0.44,2.000000,,2013-06-18 11:43:00,
2013-06-18 07:52:00,69.0,68.0,-100.00,SW,220,0.0,7.0,96,0.19,,,0.44,2.000000,,2013-06-18 11:52:00,
2013-06-18 08:01:00,69.0,68.0,-100.00,SW,220,0.0,7.0,96,0.19,,,0.44,2.000000,,2013-06-18 12:01:00,
2013-06-18 08:43:00,71.0,69.0,-100.00,SSW,196,5.0,10.0,93,0.01,,,0.45,40.000000,,2013-06-18 12:43:00,
2013-06-18 08:52:00,71.0,69.0,-100.00,SSW,196,5.0,10.0,93,0.01,,,0.45,40.000000,,2013-06-18 12:52:00,
2013-06-18 09:02:00,71.0,69.0,-100.00,SSW,196,5.0,10.0,93,0.01,,,0.45,40.000000,,2013-06-18 13:02:00,
2013-06-18 09:43:00,70.0,68.0,-100.00,SSW,198,7.0,11.0,93,0.01,,,0.46,49.000000,,2013-06-18 13:43:00,
2013-06-18 09:53:00,70.0,68.0,-100.00,SSW,198,7.0,11.0,93,0.01,,,0.46,49.000000,,2013-06-18 13:53:00,
2013-06-18 10:02:00,70.0,68.0,-100.00,SSW,198,7.0,11.0,93,0.01,,,0.46,49.000000,,2013-06-18 14:02:00,
2013-06-18 10:33:00,71.0,69.0,-100.00,SSW,204,7.0,13.0,93,0.01,,,0.47,43.000000,,2013-06-18 14:33:00,
2013-06-18 10:43:00,71.0,69.0,-100.00,SSW,204,7.0,13.0,93,0.01,,,0.47,43.000000,,2013-06-18 14:43:00,
2013-06-18 10:53:00,71.0,69.0,-100.00,SSW,204,7.0,13.0,93,0.01,,,0.47,43.000000,,2013-06-18 14:53:00,
2013-06-18 11:02:00,71.0,69.0,-100.00,SSW,204,7.0,13.0,93,0.01,,,0.47,43.000000,,2013-06-18 15:02:00,
2013-06-18 11:33:00,74.0,70.0,-100.00,SW,218,11.0,17.0,86,0.00,,,0.42,240.000000,,2013-06-18 15:33:00,
2013-06-18 11:43:00,74.0,70.0,-100.00,SW,218,11.0,17.0,86,0.00,,,0.42,240.000000,,2013-06-18 15:43:00,
2013-06-18 11:53:00,74.0,70.0,-100.00,SW,218,11.0,17.0,86,0.00,,,0.42,240.000000,,2013-06-18 15:53:00,
2013-06-18 12:01:00,74.0,70.0,-100.00,SW,218,11.0,17.0,86,0.00,,,0.42,240.000000,,2013-06-18 16:01:00,
2013-06-18 12:43:00,78.0,71.0,-100.00,SW,214,11.0,20.0,80,0.00,,,0.41,559.000000,,2013-06-18 16:43:00,
2013-06-18 12:53:00,78.0,71.0,-100.00,SW,214,11.0,20.0,80,0.00,,,0.41,559.000000,,2013-06-18 16:53:00,
2013-06-18 13:02:00,78.0,71.0,-100.00,SW,214,11.0,20.0,80,0.00,,,0.41,559.000000,,2013-06-18 17:02:00,
2013-06-18 13:34:00,72.0,69.0,-100.00,WNW,297,5.0,16.0,89,0.03,,,0.44,302.000000,,2013-06-18 17:34:00,
2013-06-18 13:43:00,72.0,69.0,-100.00,WNW,297,5.0,16.0,89,0.03,,,0.44,302.000000,,2013-06-18 17:43:00,
2013-06-18 13:53:00,72.0,69.0,-100.00,WNW,297,5.0,16.0,89,0.03,,,0.44,302.000000,,2013-06-18 17:53:00,
2013-06-18 14:02:00,72.0,69.0,-100.00,WNW,297,5.0,16.0,89,0.03,,,0.44,302.000000,,2013-06-18 18:02:00,
2013-06-18 14:43:00,79.0,72.0,-100.00,WSW,253,4.0,10.0,80,0.18,,,0.62,474.000000,,2013-06-18 18:43:00,
2013-06-18 14:53:00,79.0,72.0,-100.00,WSW,253,4.0,10.0,80,0.18,,,0.62,474.000000,,2013-06-18 18:53:00,
2013-06-18 15:02:00,79.0,72.0,-100.00,WSW,253,4.0,10.0,80,0.18,,,0.62,474.000000,,2013-06-18 19:02:00,
2013-06-18 15:33:00,80.0,71.0,-100.00,WNW,289,1.0,7.0,75,0.08,,,0.70,345.000000,,2013-06-18 19:33:00,
2013-06-18 15:43:00,80.0,71.0,-100.00,WNW,289,1.0,7.0,75,0.08,,,0.70,345.000000,,2013-06-18 19:43:00,
2013-06-18 15:53:00,80.0,71.0,-100.00,WNW,289,1.0,7.0,75,0.08,,,0.70,345.000000,,2013-06-18 19:53:00,
2013-06-18 16:02:00,80.0,71.0,-100.00,WNW,289,1.0,7.0,75,0.08,,,0.70,345.000000,,2013-06-18 20:02:00,
2013-06-18 16:33:00,79.0,68.0,-100.00,North,8,10.0,17.0,68,0.05,,,0.75,534.000000,,2013-06-18 20:33:00,
2013-06-18 16:43:00,79.0,68.0,-100.00,North,8,10.0,17.0,68,0.05,,,0.75,534.000000,,2013-06-18 20:43:00,
2013-06-18 16:52:00,79.0,68.0,-100.00,North,8,10.0,17.0,68,0.05,,,0.75,534.000000,,2013-06-18 20:52:00,
2013-06-18 17:02:00,79.0,68.0,-100.00,North,8,10.0,17.0,68,0.05,,,0.75,534.000000,,2013-06-18 21:02:00,
2013-06-18 17:33:00,80.0,67.0,-100.00,North,4,4.0,14.0,64,0.02,,,0.77,453.000000,,2013-06-18 21:33:00,
2013-06-18 17:43:00,80.0,67.0,-100.00,North,4,4.0,14.0,64,0.02,,,0.77,453.000000,,2013-06-18 21:43:00,
2013-06-18 17:52:00,80.0,67.0,-100.00,North,4,4.0,14.0,64,0.02,,,0.77,453.000000,,2013-06-18 21:52:00,
2013-06-18 18:02:00,80.0,67.0,-100.00,North,4,4.0,14.0,64,0.02,,,0.77,453.000000,,2013-06-18 22:02:00,
2013-06-18 18:34:00,79.0,67.0,-100.00,NE,53,5.0,11.0,66,0.00,,,0.77,369.000000,,2013-06-18 22:34:00,
2013-06-18 18:43:00,79.0,67.0,-100.00,NE,53,5.0,11.0,66,0.00,,,0.77,369.000000,,2013-06-18 22:43:00,
2013-06-18 18:53:00,79.0,67.0,-100.00,NE,53,5.0,11.0,66,0.00,,,0.77,369.000000,,2013-06-18 22:53:00,
2013-06-18 19:02:00,79.0,67.0,-100.00,NE,53,5.0,11.0,66,0.00,,,0.77,369.000000,,2013-06-18 23:02:00,
2013-06-18 19:39:00,79.0,67.0,-100.00,ENE,60,5.0,10.0,67,0.00,,,0.77,245.000000,,2013-06-18 23:39:00,
2013-06-18 19:48:00,79.0,67.0,-100.00,ENE,60,5.0,10.0,67,0.00,,,0.77,245.000000,,2013-06-18 23:48:00,
2013-06-18 20:02:00,79.0,67.0,-100.00,ENE,60,5.0,10.0,67,0.00,,,0.77,245.000000,,2013-06-19 00:02:00,
2013-06-18 20:33:00,76.0,65.0,-100.00,ENE,71,1.0,11.0,69,0.00,,,0.74,108.000000,,2013-06-19 00:33:00,
2013-06-18 20:43:00,76.0,65.0,-100.00,ENE,71,1.0,11.0,69,0.00,,,0.74,108.000000,,2013-06-19 00:43:00,
2013-06-18 20:53:00,76.0,65.0,-100.00,ENE,71,1.0,11.0,69,0.00,,,0.74,108.000000,,2013-06-19 00:53:00,
2013-06-18 21:01:00,76.0,65.0,-100.00,ENE,71,1.0,11.0,69,0.00,,,0.74,108.000000,,2013-06-19 01:01:00,
2013-06-18 21:32:00,70.0,67.0,-100.00,ESE,106,0.0,5.0,89,0.00,,,0.74,25.000000,,2013-06-19 01:32:00,
2013-06-18 21:43:00,70.0,67.0,-100.00,ESE,106,0.0,5.0,89,0.00,,,0.74,25.000000,,2013-06-19 01:43:00,
2013-06-18 21:53:00,70.0,67.0,-100.00,ESE,106,0.0,5.0,89,0.00,,,0.74,25.000000,,2013-06-19 01:53:00,
2013-06-18 22:01:00,70.0,67.0,-100.00,ESE,106,0.0,5.0,89,0.00,,,0.74,25.000000,,2013-06-19 02:01:00,
2013-06-18 22:32:00,67.0,66.0,-100.00,SE,133,0.0,0.0,95,0.00,,,0.74,0.000000,,2013-06-19 02:32:00,
2013-06-18 22:43:00,67.0,66.0,-100.00,SE,133,0.0,0.0,95,0.00,,,0.74,0.000000,,2013-06-19 02:43:00,
2013-06-18 22:52:00,67.0,66.0,-100.00,SE,133,0.0,0.0,95,0.00,,,0.74,0.000000,,2013-06-19 02:52:00,
2013-06-18 23:01:00,67.0,66.0,-100.00,SE,133,0.0,0.0,95,0.00,,,0.74,0.000000,,2013-06-19 03:01:00,
2013-06-18 23:33:00,65.0,64.0,-100.00,SE,142,0.0,0.0,96,0.00,,,0.74,0.000000,,2013-06-19 03:33:00,
2013-06-18 23:43:00,65.0,64.0,-100.00,SE,142,0.0,0.0,96,0.00,,,0.74,0.000000,,2013-06-19 03:43:00,
2013-06-18 23:52:00,65.0,64.0,-100.00,SE,142,0.0,0.0,96,0.00,,,0.74,0.000000,,2013-06-19 03:52:00,